sensor_id;sensor_type;location;lat;lon;timestamp;pressure;altitude;pressure_sealevel;temperature
15575;BMP180;7888;46.748;8.102;2023-02-28T00:00:32;94030.00;;;5.70
15575;BMP180;7888;46.748;8.102;2023-02-28T00:02:58;94030.00;;;5.60
15575;BMP180;7888;46.748;8.102;2023-02-28T00:05:26;94041.00;;;5.60
15575;BMP180;7888;46.748;8.102;2023-02-28T00:07:53;94022.00;;;5.60
15575;BMP180;7888;46.748;8.102;2023-02-28T00:10:23;94035.00;;;5.50
15575;BMP180;7888;46.748;8.102;2023-02-28T00:12:55;94037.00;;;5.50
15575;BMP180;7888;46.748;8.102;2023-02-28T00:15:24;94042.00;;;5.50
15575;BMP180;7888;46.748;8.102;2023-02-28T00:17:51;94038.00;;;5.50
15575;BMP180;7888;46.748;8.102;2023-02-28T00:20:18;94039.00;;;5.50
15575;BMP180;7888;46.748;8.102;2023-02-28T00:22:48;94039.00;;;5.50
15575;BMP180;7888;46.748;8.102;2023-02-28T00:25:18;94029.00;;;5.50
15575;BMP180;7888;46.748;8.102;2023-02-28T00:27:45;94039.00;;;5.50
15575;BMP180;7888;46.748;8.102;2023-02-28T00:30:16;94036.00;;;5.50
15575;BMP180;7888;46.748;8.102;2023-02-28T00:32:42;94044.00;;;5.50
15575;BMP180;7888;46.748;8.102;2023-02-28T00:35:09;94035.00;;;5.50
15575;BMP180;7888;46.748;8.102;2023-02-28T00:37:35;94035.00;;;5.50
15575;BMP180;7888;46.748;8.102;2023-02-28T00:40:01;94032.00;;;5.50
15575;BMP180;7888;46.748;8.102;2023-02-28T00:42:30;94026.00;;;5.50
15575;BMP180;7888;46.748;8.102;2023-02-28T00:44:56;94028.00;;;5.60
15575;BMP180;7888;46.748;8.102;2023-02-28T00:47:22;94039.00;;;5.60
15575;BMP180;7888;46.748;8.102;2023-02-28T00:49:47;94037.00;;;5.60
15575;BMP180;7888;46.748;8.102;2023-02-28T00:52:13;94024.00;;;5.50
15575;BMP180;7888;46.748;8.102;2023-02-28T00:54:39;94018.00;;;5.50
15575;BMP180;7888;46.748;8.102;2023-02-28T00:57:05;94025.00;;;5.50
15575;BMP180;7888;46.748;8.102;2023-02-28T00:59:31;94028.00;;;5.50
15575;BMP180;7888;46.748;8.102;2023-02-28T01:01:56;94031.00;;;5.50
15575;BMP180;7888;46.748;8.102;2023-02-28T01:04:22;94028.00;;;5.50
15575;BMP180;7888;46.748;8.102;2023-02-28T01:06:48;94020.00;;;5.40
15575;BMP180;7888;46.748;8.102;2023-02-28T01:09:14;94031.00;;;5.50
15575;BMP180;7888;46.748;8.102;2023-02-28T01:11:41;94029.00;;;5.40
15575;BMP180;7888;46.748;8.102;2023-02-28T01:14:16;94019.00;;;5.40
15575;BMP180;7888;46.748;8.102;2023-02-28T01:16:42;94037.00;;;5.40
15575;BMP180;7888;46.748;8.102;2023-02-28T01:19:08;94026.00;;;5.40
15575;BMP180;7888;46.748;8.102;2023-02-28T01:21:35;94021.00;;;5.40
15575;BMP180;7888;46.748;8.102;2023-02-28T01:24:03;94020.00;;;5.30
15575;BMP180;7888;46.748;8.102;2023-02-28T01:26:30;94022.00;;;5.30
15575;BMP180;7888;46.748;8.102;2023-02-28T01:28:56;94019.00;;;5.30
15575;BMP180;7888;46.748;8.102;2023-02-28T01:31:23;94028.00;;;5.30
15575;BMP180;7888;46.748;8.102;2023-02-28T01:33:50;94036.00;;;5.20
15575;BMP180;7888;46.748;8.102;2023-02-28T01:36:22;94026.00;;;5.20
15575;BMP180;7888;46.748;8.102;2023-02-28T01:38:50;94027.00;;;5.20
15575;BMP180;7888;46.748;8.102;2023-02-28T01:41:24;94022.00;;;5.10
15575;BMP180;7888;46.748;8.102;2023-02-28T01:46:22;94025.00;;;5.10
15575;BMP180;7888;46.748;8.102;2023-02-28T01:51:48;94022.00;;;5.10
15575;BMP180;7888;46.748;8.102;2023-02-28T01:54:24;94019.00;;;5.20
15575;BMP180;7888;46.748;8.102;2023-02-28T01:59:58;94025.00;;;5.20
15575;BMP180;7888;46.748;8.102;2023-02-28T02:02:27;94017.00;;;5.30
15575;BMP180;7888;46.748;8.102;2023-02-28T02:05:09;94008.00;;;5.30
15575;BMP180;7888;46.748;8.102;2023-02-28T02:07:39;94005.00;;;5.30
15575;BMP180;7888;46.748;8.102;2023-02-28T02:10:21;94008.00;;;5.30
15575;BMP180;7888;46.748;8.102;2023-02-28T02:16:00;94001.00;;;5.30
15575;BMP180;7888;46.748;8.102;2023-02-28T02:18:57;94010.00;;;5.30
15575;BMP180;7888;46.748;8.102;2023-02-28T02:25:14;94008.00;;;5.30
15575;BMP180;7888;46.748;8.102;2023-02-28T02:36:47;94008.00;;;5.20
15575;BMP180;7888;46.748;8.102;2023-02-28T02:39:39;94005.00;;;5.20
15575;BMP180;7888;46.748;8.102;2023-02-28T02:45:45;93991.00;;;5.30
15575;BMP180;7888;46.748;8.102;2023-02-28T02:48:17;93997.00;;;5.30
15575;BMP180;7888;46.748;8.102;2023-02-28T02:50:51;94010.00;;;5.30
15575;BMP180;7888;46.748;8.102;2023-02-28T02:53:27;93995.00;;;5.30
15575;BMP180;7888;46.748;8.102;2023-02-28T02:55:55;94007.00;;;5.40
15575;BMP180;7888;46.748;8.102;2023-02-28T02:58:30;93995.00;;;5.30
15575;BMP180;7888;46.748;8.102;2023-02-28T03:01:01;93999.00;;;5.30
15575;BMP180;7888;46.748;8.102;2023-02-28T03:03:31;93990.00;;;5.30
15575;BMP180;7888;46.748;8.102;2023-02-28T03:06:00;93995.00;;;5.30
15575;BMP180;7888;46.748;8.102;2023-02-28T03:08:28;94000.00;;;5.30
15575;BMP180;7888;46.748;8.102;2023-02-28T03:11:00;93994.00;;;5.30
15575;BMP180;7888;46.748;8.102;2023-02-28T03:16:45;93988.00;;;5.30
15575;BMP180;7888;46.748;8.102;2023-02-28T03:27:33;93990.00;;;5.20
15575;BMP180;7888;46.748;8.102;2023-02-28T03:30:10;93993.00;;;5.20
15575;BMP180;7888;46.748;8.102;2023-02-28T03:32:52;93992.00;;;5.20
15575;BMP180;7888;46.748;8.102;2023-02-28T03:35:35;93984.00;;;5.10
15575;BMP180;7888;46.748;8.102;2023-02-28T03:38:24;94001.00;;;5.10
15575;BMP180;7888;46.748;8.102;2023-02-28T03:41:06;94003.00;;;5.10
15575;BMP180;7888;46.748;8.102;2023-02-28T03:43:39;94000.00;;;5.10
15575;BMP180;7888;46.748;8.102;2023-02-28T03:46:13;94004.00;;;5.10
15575;BMP180;7888;46.748;8.102;2023-02-28T03:48:43;93996.00;;;5.10
15575;BMP180;7888;46.748;8.102;2023-02-28T03:51:15;93996.00;;;5.10
15575;BMP180;7888;46.748;8.102;2023-02-28T03:53:58;94004.00;;;5.10
15575;BMP180;7888;46.748;8.102;2023-02-28T03:56:42;94001.00;;;5.10
15575;BMP180;7888;46.748;8.102;2023-02-28T04:01:48;94004.00;;;5.10
15575;BMP180;7888;46.748;8.102;2023-02-28T04:04:17;93993.00;;;5.10
15575;BMP180;7888;46.748;8.102;2023-02-28T04:06:43;93998.00;;;5.10
15575;BMP180;7888;46.748;8.102;2023-02-28T04:09:13;93998.00;;;5.10
15575;BMP180;7888;46.748;8.102;2023-02-28T04:11:42;93993.00;;;5.00
15575;BMP180;7888;46.748;8.102;2023-02-28T04:14:11;94010.00;;;5.00
15575;BMP180;7888;46.748;8.102;2023-02-28T04:16:40;93985.00;;;4.90
15575;BMP180;7888;46.748;8.102;2023-02-28T04:19:08;93997.00;;;4.90
15575;BMP180;7888;46.748;8.102;2023-02-28T04:21:42;94005.00;;;4.90
15575;BMP180;7888;46.748;8.102;2023-02-28T04:24:14;94004.00;;;4.90
15575;BMP180;7888;46.748;8.102;2023-02-28T04:26:52;93992.00;;;4.90
15575;BMP180;7888;46.748;8.102;2023-02-28T04:29:24;94002.00;;;4.90
15575;BMP180;7888;46.748;8.102;2023-02-28T04:31:50;94005.00;;;4.90
15575;BMP180;7888;46.748;8.102;2023-02-28T04:34:19;94003.00;;;4.90
15575;BMP180;7888;46.748;8.102;2023-02-28T04:36:47;94008.00;;;4.90
15575;BMP180;7888;46.748;8.102;2023-02-28T04:39:15;94007.00;;;4.90
15575;BMP180;7888;46.748;8.102;2023-02-28T04:41:44;94016.00;;;4.80
15575;BMP180;7888;46.748;8.102;2023-02-28T04:44:10;94004.00;;;4.80
15575;BMP180;7888;46.748;8.102;2023-02-28T04:46:36;94016.00;;;4.80
15575;BMP180;7888;46.748;8.102;2023-02-28T04:49:03;94014.00;;;4.80
15575;BMP180;7888;46.748;8.102;2023-02-28T04:51:28;94016.00;;;4.80
15575;BMP180;7888;46.748;8.102;2023-02-28T04:53:55;94032.00;;;4.80
15575;BMP180;7888;46.748;8.102;2023-02-28T04:56:22;94032.00;;;4.80
15575;BMP180;7888;46.748;8.102;2023-02-28T04:58:48;94042.00;;;4.80
15575;BMP180;7888;46.748;8.102;2023-02-28T05:01:33;94042.00;;;4.80
15575;BMP180;7888;46.748;8.102;2023-02-28T05:04:02;94049.00;;;4.70
15575;BMP180;7888;46.748;8.102;2023-02-28T05:06:32;94046.00;;;4.80
15575;BMP180;7888;46.748;8.102;2023-02-28T05:08:58;94047.00;;;4.80
15575;BMP180;7888;46.748;8.102;2023-02-28T05:11:33;94053.00;;;4.70
15575;BMP180;7888;46.748;8.102;2023-02-28T05:14:13;94039.00;;;4.70
15575;BMP180;7888;46.748;8.102;2023-02-28T05:16:39;94045.00;;;4.70
15575;BMP180;7888;46.748;8.102;2023-02-28T05:19:05;94055.00;;;4.70
15575;BMP180;7888;46.748;8.102;2023-02-28T05:24:10;94066.00;;;4.70
15575;BMP180;7888;46.748;8.102;2023-02-28T05:26:39;94066.00;;;4.70
15575;BMP180;7888;46.748;8.102;2023-02-28T05:29:06;94060.00;;;4.70
15575;BMP180;7888;46.748;8.102;2023-02-28T05:31:33;94071.00;;;4.70
15575;BMP180;7888;46.748;8.102;2023-02-28T05:33:59;94065.00;;;4.70
15575;BMP180;7888;46.748;8.102;2023-02-28T05:36:25;94057.00;;;4.70
15575;BMP180;7888;46.748;8.102;2023-02-28T05:38:51;94053.00;;;4.70
15575;BMP180;7888;46.748;8.102;2023-02-28T05:41:19;94061.00;;;4.70
15575;BMP180;7888;46.748;8.102;2023-02-28T05:43:46;94064.00;;;4.70
15575;BMP180;7888;46.748;8.102;2023-02-28T05:46:12;94055.00;;;4.80
15575;BMP180;7888;46.748;8.102;2023-02-28T05:48:41;94064.00;;;4.80
15575;BMP180;7888;46.748;8.102;2023-02-28T05:51:08;94054.00;;;4.80
15575;BMP180;7888;46.748;8.102;2023-02-28T05:53:35;94059.00;;;4.90
15575;BMP180;7888;46.748;8.102;2023-02-28T05:56:02;94057.00;;;4.90
15575;BMP180;7888;46.748;8.102;2023-02-28T05:58:28;94062.00;;;4.90
15575;BMP180;7888;46.748;8.102;2023-02-28T06:01:00;94064.00;;;4.90
15575;BMP180;7888;46.748;8.102;2023-02-28T06:03:27;94062.00;;;4.90
15575;BMP180;7888;46.748;8.102;2023-02-28T06:05:53;94059.00;;;4.80
15575;BMP180;7888;46.748;8.102;2023-02-28T06:08:19;94056.00;;;4.80
15575;BMP180;7888;46.748;8.102;2023-02-28T06:10:45;94046.00;;;4.80
15575;BMP180;7888;46.748;8.102;2023-02-28T06:13:11;94055.00;;;4.80
15575;BMP180;7888;46.748;8.102;2023-02-28T06:15:38;94053.00;;;4.80
15575;BMP180;7888;46.748;8.102;2023-02-28T06:18:04;94067.00;;;4.80
15575;BMP180;7888;46.748;8.102;2023-02-28T06:20:30;94062.00;;;4.80
15575;BMP180;7888;46.748;8.102;2023-02-28T06:22:57;94073.00;;;4.70
15575;BMP180;7888;46.748;8.102;2023-02-28T06:25:27;94073.00;;;4.70
15575;BMP180;7888;46.748;8.102;2023-02-28T06:27:54;94084.00;;;4.70
15575;BMP180;7888;46.748;8.102;2023-02-28T06:30:21;94073.00;;;4.70
15575;BMP180;7888;46.748;8.102;2023-02-28T06:32:52;94081.00;;;4.70
15575;BMP180;7888;46.748;8.102;2023-02-28T06:35:18;94081.00;;;4.70
15575;BMP180;7888;46.748;8.102;2023-02-28T06:37:44;94083.00;;;4.70
15575;BMP180;7888;46.748;8.102;2023-02-28T06:40:10;94081.00;;;4.70
15575;BMP180;7888;46.748;8.102;2023-02-28T06:42:38;94079.00;;;4.70
15575;BMP180;7888;46.748;8.102;2023-02-28T06:45:04;94083.00;;;4.70
15575;BMP180;7888;46.748;8.102;2023-02-28T06:47:35;94085.00;;;4.70
15575;BMP180;7888;46.748;8.102;2023-02-28T06:50:02;94085.00;;;4.70
15575;BMP180;7888;46.748;8.102;2023-02-28T06:52:28;94090.00;;;4.70
15575;BMP180;7888;46.748;8.102;2023-02-28T06:54:54;94088.00;;;4.70
15575;BMP180;7888;46.748;8.102;2023-02-28T06:57:29;94090.00;;;4.80
15575;BMP180;7888;46.748;8.102;2023-02-28T07:00:02;94106.00;;;4.80
15575;BMP180;7888;46.748;8.102;2023-02-28T07:02:29;94094.00;;;4.80
15575;BMP180;7888;46.748;8.102;2023-02-28T07:04:55;94098.00;;;4.90
15575;BMP180;7888;46.748;8.102;2023-02-28T07:07:21;94097.00;;;4.90
15575;BMP180;7888;46.748;8.102;2023-02-28T07:09:47;94092.00;;;4.90
15575;BMP180;7888;46.748;8.102;2023-02-28T07:12:12;94109.00;;;5.00
15575;BMP180;7888;46.748;8.102;2023-02-28T07:14:38;94121.00;;;5.00
15575;BMP180;7888;46.748;8.102;2023-02-28T07:17:07;94115.00;;;5.00
15575;BMP180;7888;46.748;8.102;2023-02-28T07:19:32;94107.00;;;5.00
15575;BMP180;7888;46.748;8.102;2023-02-28T07:21:58;94115.00;;;5.10
15575;BMP180;7888;46.748;8.102;2023-02-28T07:24:25;94103.00;;;5.10
15575;BMP180;7888;46.748;8.102;2023-02-28T07:26:53;94107.00;;;5.10
15575;BMP180;7888;46.748;8.102;2023-02-28T07:29:19;94106.00;;;5.10
15575;BMP180;7888;46.748;8.102;2023-02-28T07:31:45;94111.00;;;5.20
15575;BMP180;7888;46.748;8.102;2023-02-28T07:34:13;94105.00;;;5.20
15575;BMP180;7888;46.748;8.102;2023-02-28T07:36:39;94112.00;;;5.30
15575;BMP180;7888;46.748;8.102;2023-02-28T07:39:05;94108.00;;;5.30
15575;BMP180;7888;46.748;8.102;2023-02-28T07:41:31;94107.00;;;5.40
15575;BMP180;7888;46.748;8.102;2023-02-28T07:44:00;94106.00;;;5.50
15575;BMP180;7888;46.748;8.102;2023-02-28T07:46:26;94102.00;;;5.50
15575;BMP180;7888;46.748;8.102;2023-02-28T07:48:52;94117.00;;;5.60
15575;BMP180;7888;46.748;8.102;2023-02-28T07:51:19;94119.00;;;5.70
15575;BMP180;7888;46.748;8.102;2023-02-28T07:53:46;94106.00;;;5.70
15575;BMP180;7888;46.748;8.102;2023-02-28T07:56:12;94114.00;;;5.80
15575;BMP180;7888;46.748;8.102;2023-02-28T07:58:38;94114.00;;;5.90
15575;BMP180;7888;46.748;8.102;2023-02-28T08:01:10;94102.00;;;6.00
15575;BMP180;7888;46.748;8.102;2023-02-28T08:03:37;94106.00;;;6.00
15575;BMP180;7888;46.748;8.102;2023-02-28T08:06:06;94115.00;;;6.00
15575;BMP180;7888;46.748;8.102;2023-02-28T08:08:32;94110.00;;;6.10
15575;BMP180;7888;46.748;8.102;2023-02-28T08:11:01;94114.00;;;6.10
15575;BMP180;7888;46.748;8.102;2023-02-28T08:13:29;94123.00;;;6.10
15575;BMP180;7888;46.748;8.102;2023-02-28T08:15:55;94122.00;;;6.20
15575;BMP180;7888;46.748;8.102;2023-02-28T08:18:23;94119.00;;;6.20
15575;BMP180;7888;46.748;8.102;2023-02-28T08:20:49;94118.00;;;6.20
15575;BMP180;7888;46.748;8.102;2023-02-28T08:23:15;94119.00;;;6.20
15575;BMP180;7888;46.748;8.102;2023-02-28T08:25:41;94122.00;;;6.20
15575;BMP180;7888;46.748;8.102;2023-02-28T08:28:07;94122.00;;;6.20
15575;BMP180;7888;46.748;8.102;2023-02-28T08:30:32;94127.00;;;6.30
15575;BMP180;7888;46.748;8.102;2023-02-28T08:32:58;94118.00;;;6.40
15575;BMP180;7888;46.748;8.102;2023-02-28T08:35:24;94115.00;;;6.50
15575;BMP180;7888;46.748;8.102;2023-02-28T08:37:50;94116.00;;;6.60
15575;BMP180;7888;46.748;8.102;2023-02-28T08:40:16;94106.00;;;6.70
15575;BMP180;7888;46.748;8.102;2023-02-28T08:42:47;94113.00;;;6.80
15575;BMP180;7888;46.748;8.102;2023-02-28T08:45:14;94121.00;;;6.90
15575;BMP180;7888;46.748;8.102;2023-02-28T08:47:41;94115.00;;;7.00
15575;BMP180;7888;46.748;8.102;2023-02-28T08:50:07;94119.00;;;7.10
15575;BMP180;7888;46.748;8.102;2023-02-28T08:52:33;94122.00;;;7.20
15575;BMP180;7888;46.748;8.102;2023-02-28T08:54:59;94119.00;;;7.20
15575;BMP180;7888;46.748;8.102;2023-02-28T08:57:25;94123.00;;;7.30
15575;BMP180;7888;46.748;8.102;2023-02-28T08:59:54;94128.00;;;7.40
15575;BMP180;7888;46.748;8.102;2023-02-28T09:02:20;94137.00;;;7.40
15575;BMP180;7888;46.748;8.102;2023-02-28T09:04:45;94140.00;;;7.50
15575;BMP180;7888;46.748;8.102;2023-02-28T09:07:12;94134.00;;;7.50
15575;BMP180;7888;46.748;8.102;2023-02-28T09:09:38;94129.00;;;7.50
15575;BMP180;7888;46.748;8.102;2023-02-28T09:12:26;94132.00;;;7.60
15575;BMP180;7888;46.748;8.102;2023-02-28T09:14:53;94147.00;;;7.60
15575;BMP180;7888;46.748;8.102;2023-02-28T09:17:19;94132.00;;;7.70
15575;BMP180;7888;46.748;8.102;2023-02-28T09:19:47;94130.00;;;7.70
15575;BMP180;7888;46.748;8.102;2023-02-28T09:22:13;94139.00;;;7.80
15575;BMP180;7888;46.748;8.102;2023-02-28T09:24:39;94129.00;;;7.90
15575;BMP180;7888;46.748;8.102;2023-02-28T09:27:05;94130.00;;;7.90
15575;BMP180;7888;46.748;8.102;2023-02-28T09:29:33;94138.00;;;8.00
15575;BMP180;7888;46.748;8.102;2023-02-28T09:32:00;94150.00;;;8.10
15575;BMP180;7888;46.748;8.102;2023-02-28T09:34:27;94148.00;;;8.10
15575;BMP180;7888;46.748;8.102;2023-02-28T09:36:56;94143.00;;;8.20
15575;BMP180;7888;46.748;8.102;2023-02-28T09:39:23;94149.00;;;8.20
15575;BMP180;7888;46.748;8.102;2023-02-28T09:41:54;94138.00;;;8.20
15575;BMP180;7888;46.748;8.102;2023-02-28T09:44:35;94158.00;;;8.30
15575;BMP180;7888;46.748;8.102;2023-02-28T09:47:28;94152.00;;;8.40
15575;BMP180;7888;46.748;8.102;2023-02-28T09:49:59;94155.00;;;8.50
15575;BMP180;7888;46.748;8.102;2023-02-28T09:52:31;94156.00;;;8.60
15575;BMP180;7888;46.748;8.102;2023-02-28T09:55:39;94150.00;;;8.60
15575;BMP180;7888;46.748;8.102;2023-02-28T09:58:37;94151.00;;;8.60
15575;BMP180;7888;46.748;8.102;2023-02-28T10:01:33;94153.00;;;8.60
15575;BMP180;7888;46.748;8.102;2023-02-28T10:06:49;94166.00;;;8.80
15575;BMP180;7888;46.748;8.102;2023-02-28T10:09:19;94164.00;;;8.90
15575;BMP180;7888;46.748;8.102;2023-02-28T10:11:51;94172.00;;;9.00
15575;BMP180;7888;46.748;8.102;2023-02-28T10:14:21;94176.00;;;9.10
15575;BMP180;7888;46.748;8.102;2023-02-28T10:25:29;94166.00;;;9.30
15575;BMP180;7888;46.748;8.102;2023-02-28T10:28:13;94177.00;;;9.30
15575;BMP180;7888;46.748;8.102;2023-02-28T10:30:44;94179.00;;;9.40
15575;BMP180;7888;46.748;8.102;2023-02-28T10:33:34;94173.00;;;9.50
15575;BMP180;7888;46.748;8.102;2023-02-28T10:36:02;94176.00;;;9.60
15575;BMP180;7888;46.748;8.102;2023-02-28T10:38:39;94172.00;;;9.70
15575;BMP180;7888;46.748;8.102;2023-02-28T10:43:39;94167.00;;;9.90
15575;BMP180;7888;46.748;8.102;2023-02-28T10:49:12;94173.00;;;9.90
15575;BMP180;7888;46.748;8.102;2023-02-28T10:51:41;94165.00;;;10.00
15575;BMP180;7888;46.748;8.102;2023-02-28T10:54:19;94165.00;;;10.00
15575;BMP180;7888;46.748;8.102;2023-02-28T10:56:45;94169.00;;;10.10
15575;BMP180;7888;46.748;8.102;2023-02-28T10:59:40;94161.00;;;10.00
15575;BMP180;7888;46.748;8.102;2023-02-28T11:02:36;94167.00;;;10.00
15575;BMP180;7888;46.748;8.102;2023-02-28T11:05:30;94167.00;;;10.00
15575;BMP180;7888;46.748;8.102;2023-02-28T11:08:15;94173.00;;;9.90
15575;BMP180;7888;46.748;8.102;2023-02-28T11:10:58;94150.00;;;9.90
15575;BMP180;7888;46.748;8.102;2023-02-28T11:13:35;94142.00;;;9.80
15575;BMP180;7888;46.748;8.102;2023-02-28T11:16:09;94155.00;;;9.90
15575;BMP180;7888;46.748;8.102;2023-02-28T11:18:41;94157.00;;;9.90
15575;BMP180;7888;46.748;8.102;2023-02-28T11:21:10;94148.00;;;10.00
15575;BMP180;7888;46.748;8.102;2023-02-28T11:23:41;94140.00;;;10.10
15575;BMP180;7888;46.748;8.102;2023-02-28T11:26:07;94149.00;;;10.20
15575;BMP180;7888;46.748;8.102;2023-02-28T11:28:41;94150.00;;;10.20
15575;BMP180;7888;46.748;8.102;2023-02-28T11:33:52;94143.00;;;10.30
15575;BMP180;7888;46.748;8.102;2023-02-28T11:36:22;94144.00;;;10.40
15575;BMP180;7888;46.748;8.102;2023-02-28T11:38:58;94137.00;;;10.50
15575;BMP180;7888;46.748;8.102;2023-02-28T11:44:44;94130.00;;;10.50
15575;BMP180;7888;46.748;8.102;2023-02-28T11:53:31;94136.00;;;10.60
15575;BMP180;7888;46.748;8.102;2023-02-28T11:56:51;94131.00;;;10.60
15575;BMP180;7888;46.748;8.102;2023-02-28T11:59:55;94137.00;;;10.60
15575;BMP180;7888;46.748;8.102;2023-02-28T12:02:42;94118.00;;;10.70
15575;BMP180;7888;46.748;8.102;2023-02-28T12:08:58;94137.00;;;10.80
15575;BMP180;7888;46.748;8.102;2023-02-28T12:11:52;94125.00;;;10.90
15575;BMP180;7888;46.748;8.102;2023-02-28T12:23:50;94122.00;;;11.20
15575;BMP180;7888;46.748;8.102;2023-02-28T12:26:44;94127.00;;;11.30
15575;BMP180;7888;46.748;8.102;2023-02-28T12:29:47;94125.00;;;11.30
15575;BMP180;7888;46.748;8.102;2023-02-28T12:32:16;94117.00;;;11.30
15575;BMP180;7888;46.748;8.102;2023-02-28T12:34:47;94119.00;;;11.40
15575;BMP180;7888;46.748;8.102;2023-02-28T12:37:44;94107.00;;;11.40
15575;BMP180;7888;46.748;8.102;2023-02-28T12:40:20;94104.00;;;11.40
15575;BMP180;7888;46.748;8.102;2023-02-28T12:42:56;94110.00;;;11.40
15575;BMP180;7888;46.748;8.102;2023-02-28T12:48:12;94110.00;;;11.60
15575;BMP180;7888;46.748;8.102;2023-02-28T12:50:40;94109.00;;;11.60
15575;BMP180;7888;46.748;8.102;2023-02-28T12:53:18;94091.00;;;11.60
15575;BMP180;7888;46.748;8.102;2023-02-28T13:01:38;94111.00;;;11.60
15575;BMP180;7888;46.748;8.102;2023-02-28T13:04:41;94105.00;;;11.70
15575;BMP180;7888;46.748;8.102;2023-02-28T13:09:56;94100.00;;;11.90
15575;BMP180;7888;46.748;8.102;2023-02-28T13:12:23;94108.00;;;11.90
15575;BMP180;7888;46.748;8.102;2023-02-28T13:14:50;94103.00;;;12.00
15575;BMP180;7888;46.748;8.102;2023-02-28T13:17:24;94114.00;;;12.10
15575;BMP180;7888;46.748;8.102;2023-02-28T13:24:53;94115.00;;;12.50
15575;BMP180;7888;46.748;8.102;2023-02-28T13:27:37;94118.00;;;12.60
15575;BMP180;7888;46.748;8.102;2023-02-28T13:33:49;94133.00;;;12.80
15575;BMP180;7888;46.748;8.102;2023-02-28T13:36:30;94141.00;;;12.90
15575;BMP180;7888;46.748;8.102;2023-02-28T13:39:02;94142.00;;;13.10
15575;BMP180;7888;46.748;8.102;2023-02-28T13:49:32;94149.00;;;13.50
15575;BMP180;7888;46.748;8.102;2023-02-28T13:55:27;94151.00;;;13.30
15575;BMP180;7888;46.748;8.102;2023-02-28T13:58:25;94158.00;;;13.30
15575;BMP180;7888;46.748;8.102;2023-02-28T14:01:16;94156.00;;;13.40
15575;BMP180;7888;46.748;8.102;2023-02-28T14:06:33;94162.00;;;13.70
15575;BMP180;7888;46.748;8.102;2023-02-28T14:11:43;94168.00;;;13.70
15575;BMP180;7888;46.748;8.102;2023-02-28T14:17:05;94164.00;;;13.80
15575;BMP180;7888;46.748;8.102;2023-02-28T14:19:35;94163.00;;;13.80
15575;BMP180;7888;46.748;8.102;2023-02-28T14:25:32;94177.00;;;13.70
15575;BMP180;7888;46.748;8.102;2023-02-28T14:30:50;94178.00;;;13.70
15575;BMP180;7888;46.748;8.102;2023-02-28T14:36:18;94160.00;;;13.80
15575;BMP180;7888;46.748;8.102;2023-02-28T14:38:56;94165.00;;;13.80
15575;BMP180;7888;46.748;8.102;2023-02-28T14:41:35;94171.00;;;13.80
15575;BMP180;7888;46.748;8.102;2023-02-28T14:44:24;94180.00;;;13.80
15575;BMP180;7888;46.748;8.102;2023-02-28T14:47:02;94182.00;;;13.80
15575;BMP180;7888;46.748;8.102;2023-02-28T14:49:44;94170.00;;;13.80
15575;BMP180;7888;46.748;8.102;2023-02-28T14:52:22;94180.00;;;13.80
15575;BMP180;7888;46.748;8.102;2023-02-28T14:54:57;94184.00;;;13.80
15575;BMP180;7888;46.748;8.102;2023-02-28T15:02:35;94187.00;;;13.60
15575;BMP180;7888;46.748;8.102;2023-02-28T15:07:44;94193.00;;;13.50
15575;BMP180;7888;46.748;8.102;2023-02-28T15:12:39;94194.00;;;13.40
15575;BMP180;7888;46.748;8.102;2023-02-28T15:15:06;94184.00;;;13.30
15575;BMP180;7888;46.748;8.102;2023-02-28T15:17:39;94188.00;;;13.30
15575;BMP180;7888;46.748;8.102;2023-02-28T15:20:15;94186.00;;;13.30
15575;BMP180;7888;46.748;8.102;2023-02-28T15:22:41;94187.00;;;13.20
15575;BMP180;7888;46.748;8.102;2023-02-28T15:25:14;94204.00;;;13.20
15575;BMP180;7888;46.748;8.102;2023-02-28T15:27:47;94203.00;;;13.10
15575;BMP180;7888;46.748;8.102;2023-02-28T15:30:28;94199.00;;;13.00
15575;BMP180;7888;46.748;8.102;2023-02-28T15:33:47;94204.00;;;12.80
15575;BMP180;7888;46.748;8.102;2023-02-28T15:36:19;94199.00;;;12.80
15575;BMP180;7888;46.748;8.102;2023-02-28T15:38:51;94194.00;;;12.80
15575;BMP180;7888;46.748;8.102;2023-02-28T15:41:36;94200.00;;;12.70
15575;BMP180;7888;46.748;8.102;2023-02-28T15:44:30;94203.00;;;12.60
15575;BMP180;7888;46.748;8.102;2023-02-28T15:47:04;94210.00;;;12.50
15575;BMP180;7888;46.748;8.102;2023-02-28T15:49:49;94208.00;;;12.50
15575;BMP180;7888;46.748;8.102;2023-02-28T15:52:45;94208.00;;;12.40
15575;BMP180;7888;46.748;8.102;2023-02-28T15:55:25;94200.00;;;12.30
15575;BMP180;7888;46.748;8.102;2023-02-28T15:57:55;94208.00;;;12.20
15575;BMP180;7888;46.748;8.102;2023-02-28T16:00:27;94211.00;;;12.10
15575;BMP180;7888;46.748;8.102;2023-02-28T16:02:53;94212.00;;;12.10
15575;BMP180;7888;46.748;8.102;2023-02-28T16:05:29;94216.00;;;12.10
15575;BMP180;7888;46.748;8.102;2023-02-28T16:08:15;94210.00;;;12.00
15575;BMP180;7888;46.748;8.102;2023-02-28T16:10:41;94228.00;;;12.00
15575;BMP180;7888;46.748;8.102;2023-02-28T16:13:12;94208.00;;;11.90
15575;BMP180;7888;46.748;8.102;2023-02-28T16:15:43;94229.00;;;11.80
15575;BMP180;7888;46.748;8.102;2023-02-28T16:18:12;94215.00;;;11.70
15575;BMP180;7888;46.748;8.102;2023-02-28T16:20:39;94223.00;;;11.70
15575;BMP180;7888;46.748;8.102;2023-02-28T16:23:05;94227.00;;;11.60
15575;BMP180;7888;46.748;8.102;2023-02-28T16:25:40;94219.00;;;11.50
15575;BMP180;7888;46.748;8.102;2023-02-28T16:28:32;94225.00;;;11.40
15575;BMP180;7888;46.748;8.102;2023-02-28T16:31:05;94230.00;;;11.30
15575;BMP180;7888;46.748;8.102;2023-02-28T16:33:32;94230.00;;;11.30
15575;BMP180;7888;46.748;8.102;2023-02-28T16:35:59;94230.00;;;11.20
15575;BMP180;7888;46.748;8.102;2023-02-28T16:38:25;94229.00;;;11.10
15575;BMP180;7888;46.748;8.102;2023-02-28T16:40:55;94226.00;;;11.00
15575;BMP180;7888;46.748;8.102;2023-02-28T16:43:24;94227.00;;;10.80
15575;BMP180;7888;46.748;8.102;2023-02-28T16:45:58;94232.00;;;10.70
15575;BMP180;7888;46.748;8.102;2023-02-28T16:48:25;94236.00;;;10.60
15575;BMP180;7888;46.748;8.102;2023-02-28T16:50:51;94237.00;;;10.50
15575;BMP180;7888;46.748;8.102;2023-02-28T16:53:17;94227.00;;;10.40
15575;BMP180;7888;46.748;8.102;2023-02-28T16:55:43;94244.00;;;10.40
15575;BMP180;7888;46.748;8.102;2023-02-28T16:58:15;94244.00;;;10.30
15575;BMP180;7888;46.748;8.102;2023-02-28T17:00:41;94251.00;;;10.20
15575;BMP180;7888;46.748;8.102;2023-02-28T17:03:24;94253.00;;;10.10
15575;BMP180;7888;46.748;8.102;2023-02-28T17:05:50;94243.00;;;9.90
15575;BMP180;7888;46.748;8.102;2023-02-28T17:08:16;94243.00;;;9.80
15575;BMP180;7888;46.748;8.102;2023-02-28T17:10:42;94255.00;;;9.60
15575;BMP180;7888;46.748;8.102;2023-02-28T17:13:08;94254.00;;;9.50
15575;BMP180;7888;46.748;8.102;2023-02-28T17:15:35;94266.00;;;9.50
15575;BMP180;7888;46.748;8.102;2023-02-28T17:18:03;94260.00;;;9.40
15575;BMP180;7888;46.748;8.102;2023-02-28T17:20:29;94256.00;;;9.20
15575;BMP180;7888;46.748;8.102;2023-02-28T17:22:56;94262.00;;;9.20